< < Back
Terminal Aerodrome Forecast


Current Version              Previous Versions:   1  2  3  4  5  6  7  8  9  

Terminal Aerodrome Forecast

254
FTUS42 KTAE 012321
TAFABY
TAF
KABY 012321Z 0200/0224 00000KT 5SM FU SKC
     FM020200 00000KT P6SM SCT250
     FM020800 00000KT 4SM BR SCT005 BKN150
      TEMPO 0209/0213 2SM BR BKN005
     FM021500 15005KT P6SM SCT040 BKN150=

Latest METAR

135
SAUS70 KWBC 020100 RRB
MTRABY
METAR KABY 020053Z AUTO 00000KT 5SM HZ CLR 22/13 A3007 RMK AO2 SLP180
T02170133


USA.gov is the U.S. government's official web portal to all federal, state and local government web resources and services.